Terminal Aerodrome Forecast
Issued by NWS

Home | Current Version | Previous Version | Graphics & Text | Print | Product List | Glossary On
Versions: 1 2 3 4 5 6 7 8 9 10 11 12 13 14 15 16 17 18 19 20 21 22
000
FTUS43 KGRB 262126 AAA
TAFAUW
TAF AMD
KAUW 262126Z 2621/2718 12009KT 6SM BR VCSH BKN025 OVC050
      TEMPO 2621/2701 3SM SHRA BR BKN015
     FM270100 VRB03KT 4SM -SHRA BR BKN006 OVC012
     FM270400 28010G16KT 4SM -SHRA BR SCT008 OVC015
     FM270800 29009G16KT 3SM RA BR BKN008 OVC015
     FM271400 27012G20KT P6SM VCSH BKN018=

USA.gov is the U.S. government's official web portal to all federal, state and local government web resources and services.